sensor_id;sensor_type;location;lat;lon;timestamp;temperature;humidity
39347;DHT22;26262;49.836;6.632;2023-09-19T00:00:19;15.80;99.90
39347;DHT22;26262;49.836;6.632;2023-09-19T00:02:58;15.70;99.90
39347;DHT22;26262;49.836;6.632;2023-09-19T00:05:28;15.70;99.90
39347;DHT22;26262;49.836;6.632;2023-09-19T00:07:54;15.80;99.90
39347;DHT22;26262;49.836;6.632;2023-09-19T00:10:20;15.90;99.90
39347;DHT22;26262;49.836;6.632;2023-09-19T00:12:47;15.80;99.90
39347;DHT22;26262;49.836;6.632;2023-09-19T00:15:13;15.80;99.90
39347;DHT22;26262;49.836;6.632;2023-09-19T00:17:38;15.70;99.90
39347;DHT22;26262;49.836;6.632;2023-09-19T00:20:06;15.80;99.90
39347;DHT22;26262;49.836;6.632;2023-09-19T00:22:41;15.50;99.90
39347;DHT22;26262;49.836;6.632;2023-09-19T00:25:07;15.50;99.90
39347;DHT22;26262;49.836;6.632;2023-09-19T00:27:33;15.50;99.90
39347;DHT22;26262;49.836;6.632;2023-09-19T00:29:59;15.40;99.90
39347;DHT22;26262;49.836;6.632;2023-09-19T00:32:25;15.50;99.90
39347;DHT22;26262;49.836;6.632;2023-09-19T00:34:56;15.50;99.90
39347;DHT22;26262;49.836;6.632;2023-09-19T00:37:21;15.60;99.90
39347;DHT22;26262;49.836;6.632;2023-09-19T00:39:47;15.50;99.90
39347;DHT22;26262;49.836;6.632;2023-09-19T00:42:18;15.30;99.90
39347;DHT22;26262;49.836;6.632;2023-09-19T00:44:44;15.30;99.90
39347;DHT22;26262;49.836;6.632;2023-09-19T00:47:10;15.30;99.90
39347;DHT22;26262;49.836;6.632;2023-09-19T00:49:40;15.20;99.90
39347;DHT22;26262;49.836;6.632;2023-09-19T00:52:06;15.30;99.90
39347;DHT22;26262;49.836;6.632;2023-09-19T00:54:32;15.30;99.90
39347;DHT22;26262;49.836;6.632;2023-09-19T00:56:59;15.30;99.90
39347;DHT22;26262;49.836;6.632;2023-09-19T00:59:24;15.30;99.90
39347;DHT22;26262;49.836;6.632;2023-09-19T01:01:49;15.40;99.90
39347;DHT22;26262;49.836;6.632;2023-09-19T01:04:19;15.40;99.90
39347;DHT22;26262;49.836;6.632;2023-09-19T01:06:45;15.40;99.90
39347;DHT22;26262;49.836;6.632;2023-09-19T01:09:11;15.50;99.90
39347;DHT22;26262;49.836;6.632;2023-09-19T01:11:38;15.10;99.90
39347;DHT22;26262;49.836;6.632;2023-09-19T01:16:39;14.90;99.90
39347;DHT22;26262;49.836;6.632;2023-09-19T01:22:24;14.90;99.90
39347;DHT22;26262;49.836;6.632;2023-09-19T01:29:47;14.80;99.90
39347;DHT22;26262;49.836;6.632;2023-09-19T01:32:16;14.90;99.90
39347;DHT22;26262;49.836;6.632;2023-09-19T01:34:55;14.90;99.90
39347;DHT22;26262;49.836;6.632;2023-09-19T01:37:23;15.00;99.90
39347;DHT22;26262;49.836;6.632;2023-09-19T01:39:56;14.90;99.90
39347;DHT22;26262;49.836;6.632;2023-09-19T01:42:35;15.00;99.90
39347;DHT22;26262;49.836;6.632;2023-09-19T01:45:03;14.80;99.90
39347;DHT22;26262;49.836;6.632;2023-09-19T01:47:35;14.90;99.90
39347;DHT22;26262;49.836;6.632;2023-09-19T01:52:31;14.80;99.90
39347;DHT22;26262;49.836;6.632;2023-09-19T01:55:02;14.70;99.90
39347;DHT22;26262;49.836;6.632;2023-09-19T01:57:49;14.60;99.90
39347;DHT22;26262;49.836;6.632;2023-09-19T02:00:16;14.60;99.90
39347;DHT22;26262;49.836;6.632;2023-09-19T02:02:44;14.50;99.90
39347;DHT22;26262;49.836;6.632;2023-09-19T02:05:10;14.50;99.90
39347;DHT22;26262;49.836;6.632;2023-09-19T02:07:35;14.50;99.90
39347;DHT22;26262;49.836;6.632;2023-09-19T02:10:03;14.40;99.90
39347;DHT22;26262;49.836;6.632;2023-09-19T02:12:31;14.40;99.90
39347;DHT22;26262;49.836;6.632;2023-09-19T02:14:58;14.50;99.90
39347;DHT22;26262;49.836;6.632;2023-09-19T02:17:27;14.40;99.90
39347;DHT22;26262;49.836;6.632;2023-09-19T02:19:53;14.50;99.90
39347;DHT22;26262;49.836;6.632;2023-09-19T02:22:18;14.60;99.90
39347;DHT22;26262;49.836;6.632;2023-09-19T02:24:44;14.60;99.90
39347;DHT22;26262;49.836;6.632;2023-09-19T02:27:11;14.60;99.90
39347;DHT22;26262;49.836;6.632;2023-09-19T02:29:38;14.60;99.90
39347;DHT22;26262;49.836;6.632;2023-09-19T02:32:03;14.60;99.90
39347;DHT22;26262;49.836;6.632;2023-09-19T02:34:29;14.60;99.90
39347;DHT22;26262;49.836;6.632;2023-09-19T02:36:54;14.60;99.90
39347;DHT22;26262;49.836;6.632;2023-09-19T02:39:21;14.60;99.90
39347;DHT22;26262;49.836;6.632;2023-09-19T02:41:46;14.70;99.90
39347;DHT22;26262;49.836;6.632;2023-09-19T02:44:12;14.50;99.90
39347;DHT22;26262;49.836;6.632;2023-09-19T02:46:37;14.50;99.90
39347;DHT22;26262;49.836;6.632;2023-09-19T02:49:03;14.50;99.90
39347;DHT22;26262;49.836;6.632;2023-09-19T02:51:31;14.40;99.90
39347;DHT22;26262;49.836;6.632;2023-09-19T02:53:58;14.30;99.90
39347;DHT22;26262;49.836;6.632;2023-09-19T02:56:23;14.40;99.90
39347;DHT22;26262;49.836;6.632;2023-09-19T02:58:50;14.40;99.90
39347;DHT22;26262;49.836;6.632;2023-09-19T03:01:16;14.40;99.90
39347;DHT22;26262;49.836;6.632;2023-09-19T03:03:44;14.50;99.90
39347;DHT22;26262;49.836;6.632;2023-09-19T03:06:10;14.60;99.90
39347;DHT22;26262;49.836;6.632;2023-09-19T03:08:36;14.70;99.90
39347;DHT22;26262;49.836;6.632;2023-09-19T03:11:04;14.60;99.90
39347;DHT22;26262;49.836;6.632;2023-09-19T03:13:31;14.50;99.90
39347;DHT22;26262;49.836;6.632;2023-09-19T03:15:57;14.50;99.90
39347;DHT22;26262;49.836;6.632;2023-09-19T03:18:24;14.40;99.90
39347;DHT22;26262;49.836;6.632;2023-09-19T03:20:55;14.40;99.90
39347;DHT22;26262;49.836;6.632;2023-09-19T03:23:21;14.40;99.90
39347;DHT22;26262;49.836;6.632;2023-09-19T03:25:47;14.30;99.90
39347;DHT22;26262;49.836;6.632;2023-09-19T03:28:13;14.40;99.90
39347;DHT22;26262;49.836;6.632;2023-09-19T03:30:38;14.30;99.90
39347;DHT22;26262;49.836;6.632;2023-09-19T03:33:04;14.40;99.90
39347;DHT22;26262;49.836;6.632;2023-09-19T03:35:30;14.10;99.90
39347;DHT22;26262;49.836;6.632;2023-09-19T03:37:55;14.10;99.90
39347;DHT22;26262;49.836;6.632;2023-09-19T03:40:21;14.00;99.90
39347;DHT22;26262;49.836;6.632;2023-09-19T03:42:48;14.00;99.90
39347;DHT22;26262;49.836;6.632;2023-09-19T03:45:14;14.00;99.90
39347;DHT22;26262;49.836;6.632;2023-09-19T03:47:39;14.00;99.90
39347;DHT22;26262;49.836;6.632;2023-09-19T03:50:05;13.90;99.90
39347;DHT22;26262;49.836;6.632;2023-09-19T03:52:32;14.10;99.90
39347;DHT22;26262;49.836;6.632;2023-09-19T03:54:58;14.10;99.90
39347;DHT22;26262;49.836;6.632;2023-09-19T03:57:23;14.20;99.90
39347;DHT22;26262;49.836;6.632;2023-09-19T03:59:49;14.20;99.90
39347;DHT22;26262;49.836;6.632;2023-09-19T04:02:14;14.30;99.90
39347;DHT22;26262;49.836;6.632;2023-09-19T04:04:48;14.20;99.90
39347;DHT22;26262;49.836;6.632;2023-09-19T04:07:13;14.10;99.90
39347;DHT22;26262;49.836;6.632;2023-09-19T04:09:39;14.10;99.90
39347;DHT22;26262;49.836;6.632;2023-09-19T04:12:04;14.00;99.90
39347;DHT22;26262;49.836;6.632;2023-09-19T04:14:30;13.80;99.90
39347;DHT22;26262;49.836;6.632;2023-09-19T04:16:56;13.90;99.90
39347;DHT22;26262;49.836;6.632;2023-09-19T04:19:21;13.90;99.90
39347;DHT22;26262;49.836;6.632;2023-09-19T04:21:47;14.00;99.90
39347;DHT22;26262;49.836;6.632;2023-09-19T04:24:12;13.90;99.90
39347;DHT22;26262;49.836;6.632;2023-09-19T04:26:38;14.00;99.90
39347;DHT22;26262;49.836;6.632;2023-09-19T04:29:04;13.90;99.90
39347;DHT22;26262;49.836;6.632;2023-09-19T04:31:29;14.00;99.90
39347;DHT22;26262;49.836;6.632;2023-09-19T04:33:55;14.10;99.90
39347;DHT22;26262;49.836;6.632;2023-09-19T04:36:21;14.00;99.90
39347;DHT22;26262;49.836;6.632;2023-09-19T04:38:48;14.00;99.90
39347;DHT22;26262;49.836;6.632;2023-09-19T04:41:13;13.90;99.90
39347;DHT22;26262;49.836;6.632;2023-09-19T04:43:40;14.00;99.90
39347;DHT22;26262;49.836;6.632;2023-09-19T04:46:06;14.00;99.90
39347;DHT22;26262;49.836;6.632;2023-09-19T04:48:32;13.90;99.90
39347;DHT22;26262;49.836;6.632;2023-09-19T04:51:00;13.90;99.90
39347;DHT22;26262;49.836;6.632;2023-09-19T04:53:25;13.90;99.90
39347;DHT22;26262;49.836;6.632;2023-09-19T04:55:51;14.00;99.90
39347;DHT22;26262;49.836;6.632;2023-09-19T04:58:18;13.90;99.90
39347;DHT22;26262;49.836;6.632;2023-09-19T05:00:44;13.70;99.90
39347;DHT22;26262;49.836;6.632;2023-09-19T05:03:10;13.70;99.90
39347;DHT22;26262;49.836;6.632;2023-09-19T05:05:35;13.50;99.90
39347;DHT22;26262;49.836;6.632;2023-09-19T05:08:00;13.50;99.90
39347;DHT22;26262;49.836;6.632;2023-09-19T05:10:30;13.40;99.90
39347;DHT22;26262;49.836;6.632;2023-09-19T05:12:56;13.40;99.90
39347;DHT22;26262;49.836;6.632;2023-09-19T05:15:21;13.40;99.90
39347;DHT22;26262;49.836;6.632;2023-09-19T05:17:48;13.30;99.90
39347;DHT22;26262;49.836;6.632;2023-09-19T05:20:14;13.40;99.90
39347;DHT22;26262;49.836;6.632;2023-09-19T05:22:41;13.40;99.90
39347;DHT22;26262;49.836;6.632;2023-09-19T05:25:06;13.40;99.90
39347;DHT22;26262;49.836;6.632;2023-09-19T05:27:32;13.40;99.90
39347;DHT22;26262;49.836;6.632;2023-09-19T05:29:59;13.40;99.90
39347;DHT22;26262;49.836;6.632;2023-09-19T05:32:24;13.30;99.90
39347;DHT22;26262;49.836;6.632;2023-09-19T05:34:49;13.40;99.90
39347;DHT22;26262;49.836;6.632;2023-09-19T05:37:19;13.40;99.90
39347;DHT22;26262;49.836;6.632;2023-09-19T05:39:44;13.40;99.90
39347;DHT22;26262;49.836;6.632;2023-09-19T05:42:10;13.60;99.90
39347;DHT22;26262;49.836;6.632;2023-09-19T05:44:35;13.60;99.90
39347;DHT22;26262;49.836;6.632;2023-09-19T05:47:01;13.60;99.90
39347;DHT22;26262;49.836;6.632;2023-09-19T05:49:27;13.50;99.90
39347;DHT22;26262;49.836;6.632;2023-09-19T05:51:52;13.50;99.90
39347;DHT22;26262;49.836;6.632;2023-09-19T05:54:20;13.50;99.90
39347;DHT22;26262;49.836;6.632;2023-09-19T05:56:45;13.50;99.90
39347;DHT22;26262;49.836;6.632;2023-09-19T05:59:12;13.50;99.90
39347;DHT22;26262;49.836;6.632;2023-09-19T06:01:39;13.40;99.90
39347;DHT22;26262;49.836;6.632;2023-09-19T06:04:04;13.50;99.90
39347;DHT22;26262;49.836;6.632;2023-09-19T06:06:30;13.40;99.90
39347;DHT22;26262;49.836;6.632;2023-09-19T06:08:55;13.50;99.90
39347;DHT22;26262;49.836;6.632;2023-09-19T06:11:23;13.40;99.90
39347;DHT22;26262;49.836;6.632;2023-09-19T06:13:51;13.40;99.90
39347;DHT22;26262;49.836;6.632;2023-09-19T06:16:18;13.50;99.90
39347;DHT22;26262;49.836;6.632;2023-09-19T06:18:45;13.50;99.90
39347;DHT22;26262;49.836;6.632;2023-09-19T06:21:10;13.40;99.90
39347;DHT22;26262;49.836;6.632;2023-09-19T06:23:36;13.50;99.90
39347;DHT22;26262;49.836;6.632;2023-09-19T06:26:01;13.70;99.90
39347;DHT22;26262;49.836;6.632;2023-09-19T06:28:27;13.80;99.90
39347;DHT22;26262;49.836;6.632;2023-09-19T06:30:54;13.90;99.90
39347;DHT22;26262;49.836;6.632;2023-09-19T06:33:19;13.90;99.90
39347;DHT22;26262;49.836;6.632;2023-09-19T06:35:46;13.80;99.90
39347;DHT22;26262;49.836;6.632;2023-09-19T06:38:13;13.70;99.90
39347;DHT22;26262;49.836;6.632;2023-09-19T06:40:41;13.70;99.90
39347;DHT22;26262;49.836;6.632;2023-09-19T06:43:09;13.70;99.90
39347;DHT22;26262;49.836;6.632;2023-09-19T06:45:35;13.70;99.90
39347;DHT22;26262;49.836;6.632;2023-09-19T06:48:00;13.80;99.90
39347;DHT22;26262;49.836;6.632;2023-09-19T06:50:28;13.80;99.90
39347;DHT22;26262;49.836;6.632;2023-09-19T06:52:56;13.90;99.90
39347;DHT22;26262;49.836;6.632;2023-09-19T06:55:22;13.90;99.90
39347;DHT22;26262;49.836;6.632;2023-09-19T06:57:53;14.10;99.90
39347;DHT22;26262;49.836;6.632;2023-09-19T07:00:21;14.10;99.90
39347;DHT22;26262;49.836;6.632;2023-09-19T07:02:57;13.90;99.90
39347;DHT22;26262;49.836;6.632;2023-09-19T07:05:26;13.80;99.90
39347;DHT22;26262;49.836;6.632;2023-09-19T07:07:53;13.90;99.90
39347;DHT22;26262;49.836;6.632;2023-09-19T07:10:19;14.00;99.90
39347;DHT22;26262;49.836;6.632;2023-09-19T07:12:45;14.00;99.90
39347;DHT22;26262;49.836;6.632;2023-09-19T07:15:10;14.10;99.90
39347;DHT22;26262;49.836;6.632;2023-09-19T07:17:36;14.20;99.90
39347;DHT22;26262;49.836;6.632;2023-09-19T07:20:02;14.20;99.90
39347;DHT22;26262;49.836;6.632;2023-09-19T07:22:33;14.20;99.90
39347;DHT22;26262;49.836;6.632;2023-09-19T07:24:58;14.10;99.90
39347;DHT22;26262;49.836;6.632;2023-09-19T07:27:23;14.30;99.90
39347;DHT22;26262;49.836;6.632;2023-09-19T07:29:49;14.30;99.90
39347;DHT22;26262;49.836;6.632;2023-09-19T07:32:14;14.50;99.90
39347;DHT22;26262;49.836;6.632;2023-09-19T07:34:42;14.50;99.90
39347;DHT22;26262;49.836;6.632;2023-09-19T07:37:10;14.40;99.90
39347;DHT22;26262;49.836;6.632;2023-09-19T07:39:36;14.30;99.90
39347;DHT22;26262;49.836;6.632;2023-09-19T07:42:01;14.30;99.90
39347;DHT22;26262;49.836;6.632;2023-09-19T07:44:27;14.30;99.90
39347;DHT22;26262;49.836;6.632;2023-09-19T07:46:52;14.40;99.90
39347;DHT22;26262;49.836;6.632;2023-09-19T07:49:18;14.50;99.90
39347;DHT22;26262;49.836;6.632;2023-09-19T07:51:44;14.70;99.90
39347;DHT22;26262;49.836;6.632;2023-09-19T07:54:12;14.80;99.90
39347;DHT22;26262;49.836;6.632;2023-09-19T07:56:39;14.80;99.90
39347;DHT22;26262;49.836;6.632;2023-09-19T07:59:04;15.10;99.90
39347;DHT22;26262;49.836;6.632;2023-09-19T08:01:30;15.00;99.90
39347;DHT22;26262;49.836;6.632;2023-09-19T08:03:55;15.00;99.90
39347;DHT22;26262;49.836;6.632;2023-09-19T08:06:20;15.10;99.90
39347;DHT22;26262;49.836;6.632;2023-09-19T08:08:46;15.30;99.90
39347;DHT22;26262;49.836;6.632;2023-09-19T08:11:12;15.40;99.90
39347;DHT22;26262;49.836;6.632;2023-09-19T08:13:46;15.60;99.90
39347;DHT22;26262;49.836;6.632;2023-09-19T08:16:17;15.60;99.90
39347;DHT22;26262;49.836;6.632;2023-09-19T08:18:48;15.70;99.90
39347;DHT22;26262;49.836;6.632;2023-09-19T08:21:13;15.80;99.90
39347;DHT22;26262;49.836;6.632;2023-09-19T08:23:40;15.70;99.90
39347;DHT22;26262;49.836;6.632;2023-09-19T08:26:06;15.80;99.90
39347;DHT22;26262;49.836;6.632;2023-09-19T08:28:36;15.60;99.90
39347;DHT22;26262;49.836;6.632;2023-09-19T08:31:02;15.70;99.90
39347;DHT22;26262;49.836;6.632;2023-09-19T08:33:31;15.90;99.90
39347;DHT22;26262;49.836;6.632;2023-09-19T08:35:56;16.00;99.90
39347;DHT22;26262;49.836;6.632;2023-09-19T08:38:22;16.10;99.90
39347;DHT22;26262;49.836;6.632;2023-09-19T08:40:47;16.10;99.90
39347;DHT22;26262;49.836;6.632;2023-09-19T08:43:13;15.70;99.90
39347;DHT22;26262;49.836;6.632;2023-09-19T08:45:38;15.60;99.90
39347;DHT22;26262;49.836;6.632;2023-09-19T08:48:19;15.40;99.90
39347;DHT22;26262;49.836;6.632;2023-09-19T08:50:49;15.50;99.90
39347;DHT22;26262;49.836;6.632;2023-09-19T08:53:19;15.60;99.90
39347;DHT22;26262;49.836;6.632;2023-09-19T08:55:45;15.50;99.90
39347;DHT22;26262;49.836;6.632;2023-09-19T08:58:14;15.60;99.90
39347;DHT22;26262;49.836;6.632;2023-09-19T09:00:45;15.60;99.90
39347;DHT22;26262;49.836;6.632;2023-09-19T09:03:12;15.90;99.90
39347;DHT22;26262;49.836;6.632;2023-09-19T09:05:38;16.10;99.90
39347;DHT22;26262;49.836;6.632;2023-09-19T09:08:07;16.20;99.90
39347;DHT22;26262;49.836;6.632;2023-09-19T09:10:32;16.30;99.90
39347;DHT22;26262;49.836;6.632;2023-09-19T09:12:58;16.50;99.90
39347;DHT22;26262;49.836;6.632;2023-09-19T09:15:24;16.90;99.90
39347;DHT22;26262;49.836;6.632;2023-09-19T09:17:50;17.00;99.90
39347;DHT22;26262;49.836;6.632;2023-09-19T09:20:18;17.20;99.90
39347;DHT22;26262;49.836;6.632;2023-09-19T09:22:51;17.00;99.90
39347;DHT22;26262;49.836;6.632;2023-09-19T09:25:17;17.10;99.90
39347;DHT22;26262;49.836;6.632;2023-09-19T09:27:43;17.20;99.90
39347;DHT22;26262;49.836;6.632;2023-09-19T09:30:08;17.10;99.90
39347;DHT22;26262;49.836;6.632;2023-09-19T09:32:34;17.00;99.90
39347;DHT22;26262;49.836;6.632;2023-09-19T09:35:06;17.00;99.90
39347;DHT22;26262;49.836;6.632;2023-09-19T09:37:35;16.80;99.90
39347;DHT22;26262;49.836;6.632;2023-09-19T09:40:03;16.60;99.90
39347;DHT22;26262;49.836;6.632;2023-09-19T09:42:41;16.60;99.90
39347;DHT22;26262;49.836;6.632;2023-09-19T09:45:19;16.60;99.90
39347;DHT22;26262;49.836;6.632;2023-09-19T09:47:53;16.70;99.90
39347;DHT22;26262;49.836;6.632;2023-09-19T09:50:25;17.10;99.90
39347;DHT22;26262;49.836;6.632;2023-09-19T09:52:55;17.40;99.90
39347;DHT22;26262;49.836;6.632;2023-09-19T09:55:27;17.60;99.90
39347;DHT22;26262;49.836;6.632;2023-09-19T10:00:51;17.90;99.90
39347;DHT22;26262;49.836;6.632;2023-09-19T10:03:21;18.10;99.90
39347;DHT22;26262;49.836;6.632;2023-09-19T10:05:52;18.40;99.90
39347;DHT22;26262;49.836;6.632;2023-09-19T10:08:20;18.70;99.90
39347;DHT22;26262;49.836;6.632;2023-09-19T10:10:46;18.90;99.90
39347;DHT22;26262;49.836;6.632;2023-09-19T10:13:17;19.20;99.90
39347;DHT22;26262;49.836;6.632;2023-09-19T10:15:50;19.30;99.90
39347;DHT22;26262;49.836;6.632;2023-09-19T10:18:22;19.60;99.90
39347;DHT22;26262;49.836;6.632;2023-09-19T10:20:48;20.00;99.90
39347;DHT22;26262;49.836;6.632;2023-09-19T10:23:15;19.90;99.90
39347;DHT22;26262;49.836;6.632;2023-09-19T10:25:47;19.60;99.90
39347;DHT22;26262;49.836;6.632;2023-09-19T10:28:13;19.00;99.90
39347;DHT22;26262;49.836;6.632;2023-09-19T10:30:40;18.80;99.90
39347;DHT22;26262;49.836;6.632;2023-09-19T10:33:14;18.90;99.90
39347;DHT22;26262;49.836;6.632;2023-09-19T10:35:47;18.90;99.90
39347;DHT22;26262;49.836;6.632;2023-09-19T10:38:13;19.10;99.90
39347;DHT22;26262;49.836;6.632;2023-09-19T10:40:39;19.60;99.90
39347;DHT22;26262;49.836;6.632;2023-09-19T10:43:12;20.20;99.90
39347;DHT22;26262;49.836;6.632;2023-09-19T10:45:38;20.00;99.90
39347;DHT22;26262;49.836;6.632;2023-09-19T10:48:04;19.70;99.90
39347;DHT22;26262;49.836;6.632;2023-09-19T10:53:06;20.10;99.90
39347;DHT22;26262;49.836;6.632;2023-09-19T10:55:33;20.70;99.90
39347;DHT22;26262;49.836;6.632;2023-09-19T10:58:00;20.80;99.90
39347;DHT22;26262;49.836;6.632;2023-09-19T11:00:28;21.00;99.90
39347;DHT22;26262;49.836;6.632;2023-09-19T11:05:40;20.60;99.90
39347;DHT22;26262;49.836;6.632;2023-09-19T11:08:09;20.50;99.90
39347;DHT22;26262;49.836;6.632;2023-09-19T11:13:24;21.00;99.90
39347;DHT22;26262;49.836;6.632;2023-09-19T11:26:41;22.30;99.90
39347;DHT22;26262;49.836;6.632;2023-09-19T11:29:28;22.40;99.90
39347;DHT22;26262;49.836;6.632;2023-09-19T11:31:55;23.10;99.90
39347;DHT22;26262;49.836;6.632;2023-09-19T11:42:44;22.60;99.90
39347;DHT22;26262;49.836;6.632;2023-09-19T11:48:23;22.50;99.90
39347;DHT22;26262;49.836;6.632;2023-09-19T11:50:50;23.00;99.90
39347;DHT22;26262;49.836;6.632;2023-09-19T11:53:16;22.90;99.60
39347;DHT22;26262;49.836;6.632;2023-09-19T11:55:42;22.70;99.90
39347;DHT22;26262;49.836;6.632;2023-09-19T11:58:11;23.40;99.90
39347;DHT22;26262;49.836;6.632;2023-09-19T12:00:39;23.50;98.30
39347;DHT22;26262;49.836;6.632;2023-09-19T12:03:07;23.60;99.20
39347;DHT22;26262;49.836;6.632;2023-09-19T12:05:33;24.00;98.80
39347;DHT22;26262;49.836;6.632;2023-09-19T12:08:00;24.40;98.00
39347;DHT22;26262;49.836;6.632;2023-09-19T12:10:26;24.70;98.20
39347;DHT22;26262;49.836;6.632;2023-09-19T12:12:52;24.60;96.90
39347;DHT22;26262;49.836;6.632;2023-09-19T12:15:27;24.70;97.00
39347;DHT22;26262;49.836;6.632;2023-09-19T12:17:59;24.00;97.60
39347;DHT22;26262;49.836;6.632;2023-09-19T12:20:24;24.20;98.40
39347;DHT22;26262;49.836;6.632;2023-09-19T12:22:50;24.30;97.60
39347;DHT22;26262;49.836;6.632;2023-09-19T12:25:15;24.80;96.50
39347;DHT22;26262;49.836;6.632;2023-09-19T12:27:43;24.90;95.60
39347;DHT22;26262;49.836;6.632;2023-09-19T12:30:10;24.80;96.30
39347;DHT22;26262;49.836;6.632;2023-09-19T12:32:36;24.50;95.70
39347;DHT22;26262;49.836;6.632;2023-09-19T12:35:01;23.30;97.40
39347;DHT22;26262;49.836;6.632;2023-09-19T12:37:32;23.50;97.10
39347;DHT22;26262;49.836;6.632;2023-09-19T12:40:05;23.70;96.50
39347;DHT22;26262;49.836;6.632;2023-09-19T12:42:41;23.90;97.50
39347;DHT22;26262;49.836;6.632;2023-09-19T12:45:07;24.50;97.60
39347;DHT22;26262;49.836;6.632;2023-09-19T12:47:34;24.60;96.20
39347;DHT22;26262;49.836;6.632;2023-09-19T12:52:41;24.20;95.60
39347;DHT22;26262;49.836;6.632;2023-09-19T12:55:07;24.30;94.80
39347;DHT22;26262;49.836;6.632;2023-09-19T12:57:34;24.40;96.00
39347;DHT22;26262;49.836;6.632;2023-09-19T13:00:02;24.10;95.20
39347;DHT22;26262;49.836;6.632;2023-09-19T13:02:31;23.80;96.30
39347;DHT22;26262;49.836;6.632;2023-09-19T13:04:56;24.50;96.60
39347;DHT22;26262;49.836;6.632;2023-09-19T13:07:44;24.40;94.90
39347;DHT22;26262;49.836;6.632;2023-09-19T13:10:11;24.40;95.40
39347;DHT22;26262;49.836;6.632;2023-09-19T13:12:38;25.00;94.50
39347;DHT22;26262;49.836;6.632;2023-09-19T13:15:10;24.70;94.60
39347;DHT22;26262;49.836;6.632;2023-09-19T13:17:45;25.40;94.70
39347;DHT22;26262;49.836;6.632;2023-09-19T13:20:20;24.60;93.60
39347;DHT22;26262;49.836;6.632;2023-09-19T13:22:50;25.10;93.50
39347;DHT22;26262;49.836;6.632;2023-09-19T13:25:20;24.90;94.60
39347;DHT22;26262;49.836;6.632;2023-09-19T13:27:47;25.00;94.60
39347;DHT22;26262;49.836;6.632;2023-09-19T13:30:16;24.90;94.90
39347;DHT22;26262;49.836;6.632;2023-09-19T13:32:42;25.20;95.10
39347;DHT22;26262;49.836;6.632;2023-09-19T13:35:08;25.50;94.80
39347;DHT22;26262;49.836;6.632;2023-09-19T13:37:34;26.00;94.40
39347;DHT22;26262;49.836;6.632;2023-09-19T13:40:09;24.90;93.70
39347;DHT22;26262;49.836;6.632;2023-09-19T13:42:35;24.80;94.10
39347;DHT22;26262;49.836;6.632;2023-09-19T13:45:04;24.80;95.90
39347;DHT22;26262;49.836;6.632;2023-09-19T13:47:30;24.80;94.90
39347;DHT22;26262;49.836;6.632;2023-09-19T13:49:56;25.40;95.30
39347;DHT22;26262;49.836;6.632;2023-09-19T13:52:21;25.70;94.60
39347;DHT22;26262;49.836;6.632;2023-09-19T13:54:51;25.40;93.70
39347;DHT22;26262;49.836;6.632;2023-09-19T13:57:18;24.60;94.60
39347;DHT22;26262;49.836;6.632;2023-09-19T13:59:43;24.70;97.10
39347;DHT22;26262;49.836;6.632;2023-09-19T14:02:09;24.60;93.70
39347;DHT22;26262;49.836;6.632;2023-09-19T14:04:34;24.00;94.80
39347;DHT22;26262;49.836;6.632;2023-09-19T14:07:01;23.50;95.30
39347;DHT22;26262;49.836;6.632;2023-09-19T14:09:26;23.60;96.60
39347;DHT22;26262;49.836;6.632;2023-09-19T14:11:52;23.90;97.40
39347;DHT22;26262;49.836;6.632;2023-09-19T14:14:21;24.10;96.60
39347;DHT22;26262;49.836;6.632;2023-09-19T14:16:49;24.10;95.90
39347;DHT22;26262;49.836;6.632;2023-09-19T14:19:15;23.80;96.80
39347;DHT22;26262;49.836;6.632;2023-09-19T14:21:41;23.80;95.20
39347;DHT22;26262;49.836;6.632;2023-09-19T14:24:07;23.80;96.50
39347;DHT22;26262;49.836;6.632;2023-09-19T14:26:36;23.70;95.80
39347;DHT22;26262;49.836;6.632;2023-09-19T14:29:02;23.40;95.90
39347;DHT22;26262;49.836;6.632;2023-09-19T14:31:27;23.80;97.00
39347;DHT22;26262;49.836;6.632;2023-09-19T14:33:56;23.50;97.20
39347;DHT22;26262;49.836;6.632;2023-09-19T14:36:22;23.60;96.80
39347;DHT22;26262;49.836;6.632;2023-09-19T14:38:47;23.50;97.20
39347;DHT22;26262;49.836;6.632;2023-09-19T14:41:13;23.50;97.10
39347;DHT22;26262;49.836;6.632;2023-09-19T14:43:38;23.50;97.40
39347;DHT22;26262;49.836;6.632;2023-09-19T14:46:06;23.20;97.00
39347;DHT22;26262;49.836;6.632;2023-09-19T14:48:36;22.50;96.70
39347;DHT22;26262;49.836;6.632;2023-09-19T14:51:02;22.50;98.80
39347;DHT22;26262;49.836;6.632;2023-09-19T14:53:28;22.10;97.40
39347;DHT22;26262;49.836;6.632;2023-09-19T14:55:53;22.50;98.70
39347;DHT22;26262;49.836;6.632;2023-09-19T14:58:20;22.80;97.20
39347;DHT22;26262;49.836;6.632;2023-09-19T15:00:47;22.40;97.60
39347;DHT22;26262;49.836;6.632;2023-09-19T15:03:13;22.20;97.80
39347;DHT22;26262;49.836;6.632;2023-09-19T15:05:40;22.50;97.80
39347;DHT22;26262;49.836;6.632;2023-09-19T15:08:05;22.50;98.00
39347;DHT22;26262;49.836;6.632;2023-09-19T15:10:31;22.50;97.40
39347;DHT22;26262;49.836;6.632;2023-09-19T15:12:56;22.60;97.80
39347;DHT22;26262;49.836;6.632;2023-09-19T15:15:22;22.60;97.40
39347;DHT22;26262;49.836;6.632;2023-09-19T15:17:47;22.60;98.40
39347;DHT22;26262;49.836;6.632;2023-09-19T15:20:13;22.30;99.20
39347;DHT22;26262;49.836;6.632;2023-09-19T15:22:39;21.90;98.80
39347;DHT22;26262;49.836;6.632;2023-09-19T15:25:05;21.90;98.50
39347;DHT22;26262;49.836;6.632;2023-09-19T15:27:31;21.90;99.10
39347;DHT22;26262;49.836;6.632;2023-09-19T15:29:57;21.80;98.70
39347;DHT22;26262;49.836;6.632;2023-09-19T15:32:23;21.30;99.90
39347;DHT22;26262;49.836;6.632;2023-09-19T15:34:49;21.20;99.90
39347;DHT22;26262;49.836;6.632;2023-09-19T15:37:14;20.90;99.90
39347;DHT22;26262;49.836;6.632;2023-09-19T15:39:40;20.90;99.90
39347;DHT22;26262;49.836;6.632;2023-09-19T15:42:06;20.90;99.90
39347;DHT22;26262;49.836;6.632;2023-09-19T15:44:31;20.90;99.90
39347;DHT22;26262;49.836;6.632;2023-09-19T15:46:58;20.70;99.90
39347;DHT22;26262;49.836;6.632;2023-09-19T15:49:23;20.50;99.90
39347;DHT22;26262;49.836;6.632;2023-09-19T15:51:49;20.60;99.90
39347;DHT22;26262;49.836;6.632;2023-09-19T15:54:15;20.70;99.90
39347;DHT22;26262;49.836;6.632;2023-09-19T15:56:41;20.60;99.90
39347;DHT22;26262;49.836;6.632;2023-09-19T15:59:07;20.60;99.90
39347;DHT22;26262;49.836;6.632;2023-09-19T16:01:32;20.50;99.90
39347;DHT22;26262;49.836;6.632;2023-09-19T16:03:58;20.30;99.90
39347;DHT22;26262;49.836;6.632;2023-09-19T16:06:24;20.50;99.90
39347;DHT22;26262;49.836;6.632;2023-09-19T16:08:52;20.10;99.90
39347;DHT22;26262;49.836;6.632;2023-09-19T16:11:18;20.30;99.90
39347;DHT22;26262;49.836;6.632;2023-09-19T16:13:47;20.00;99.90
39347;DHT22;26262;49.836;6.632;2023-09-19T16:16:13;19.90;99.90
39347;DHT22;26262;49.836;6.632;2023-09-19T16:19:14;19.70;99.90